Time;durP1;ratioP1;P1;durP2;ratioP2;P2;SDS_P1;SDS_P2;PMS_P1;PMS_P2;Temp;Humidity;BMP_temperature;BMP_pressure;BME280_temperature;BME280_humidity;BME280_pressure;Samples;Min_cycle;Max_cycle;Signal;HPM_P1;HPM_P2
2023/07/27 00:00:42;;;;;;;10.63;4.50;;;12.50;82.70;;;;;;5033890;28;20120;-63
2023/07/27 00:03:07;;;;;;;8.23;4.22;;;12.90;82.60;;;;;;5033872;28;20131;-64
2023/07/27 00:05:33;;;;;;;5.35;3.50;;;13.00;78.50;;;;;;5033814;28;20041;-62
2023/07/27 00:07:59;;;;;;;10.52;4.43;;;13.00;78.50;;;;;;5034050;28;20044;-62
2023/07/27 00:10:24;;;;;;;6.93;3.78;;;13.10;77.00;;;;;;5034033;28;20477;-62
2023/07/27 00:12:50;;;;;;;6.97;4.38;;;12.60;76.80;;;;;;5033669;28;20149;-62
2023/07/27 00:15:16;;;;;;;6.60;3.95;;;13.00;76.40;;;;;;5033979;28;20045;-63
2023/07/27 00:17:42;;;;;;;10.35;4.47;;;13.00;75.20;;;;;;5033889;28;20057;-63
2023/07/27 00:20:08;;;;;;;8.07;3.95;;;13.00;78.10;;;;;;5033858;28;20481;-63
2023/07/27 00:22:34;;;;;;;8.75;4.07;;;13.00;73.40;;;;;;5033740;28;20503;-63
2023/07/27 00:24:59;;;;;;;6.20;3.95;;;13.50;75.80;;;;;;5033754;28;20037;-62
2023/07/27 00:27:25;;;;;;;8.05;3.92;;;12.90;79.80;;;;;;5033696;28;20120;-63
2023/07/27 00:29:50;;;;;;;7.15;3.83;;;12.90;74.70;;;;;;5033377;28;20152;-63
2023/07/27 00:32:16;;;;;;;8.18;4.07;;;14.60;75.30;;;;;;5033623;28;20044;-65
2023/07/27 00:34:42;;;;;;;6.38;3.65;;;12.80;77.50;;;;;;5032234;28;20069;-63
2023/07/27 00:37:07;;;;;;;5.65;3.88;;;13.00;77.80;;;;;;5033533;28;20473;-63
2023/07/27 00:39:34;;;;;;;8.65;4.00;;;13.00;77.10;;;;;;5033530;28;20033;-63
2023/07/27 00:41:59;;;;;;;9.82;3.67;;;13.00;74.60;;;;;;5033462;28;20037;-63
2023/07/27 00:44:25;;;;;;;6.18;3.67;;;13.00;71.80;;;;;;5033516;28;20045;-63
2023/07/27 00:46:52;;;;;;;7.15;3.63;;;13.00;68.70;;;;;;5033410;28;20044;-62
2023/07/27 00:49:19;;;;;;;10.55;3.97;;;13.10;65.40;;;;;;5033125;28;20044;-63
2023/07/27 00:51:45;;;;;;;8.27;4.15;;;13.10;66.60;;;;;;5033033;28;20136;-63
2023/07/27 00:54:11;;;;;;;7.10;3.90;;;13.10;65.30;;;;;;5033223;28;20077;-63
2023/07/27 00:56:40;;;;;;;7.65;4.63;;;13.10;61.80;;;;;;5032915;28;20044;-63
2023/07/27 00:59:06;;;;;;;7.78;4.18;;;13.10;62.40;;;;;;5032841;28;20049;-63
2023/07/27 01:01:32;;;;;;;6.93;3.88;;;13.10;65.70;;;;;;5032870;28;20036;-63
2023/07/27 01:03:58;;;;;;;8.15;3.78;;;13.20;62.50;;;;;;5032861;28;20053;-63
2023/07/27 01:06:24;;;;;;;8.45;4.15;;;13.20;64.60;;;;;;5032830;28;20128;-62
2023/07/27 01:08:51;;;;;;;7.05;4.03;;;13.20;63.90;;;;;;5033100;28;20069;-62
2023/07/27 01:11:45;;;;;;;7.20;4.18;;;13.20;58.00;;;;;;5033161;28;20404;-62
2023/07/27 01:14:36;;;;;;;6.95;3.83;;;13.20;56.40;;;;;;5032711;28;20041;-62
2023/07/27 01:17:17;;;;;;;7.20;3.53;;;13.30;54.80;;;;;;5033068;28;20044;-63
2023/07/27 01:20:07;;;;;;;7.75;4.03;;;13.30;50.50;;;;;;5033071;28;20109;-63
2023/07/27 01:22:33;;;;;;;4.93;3.60;;;13.30;53.40;;;;;;5032987;28;20037;-63
2023/07/27 01:25:26;;;;;;;7.18;3.95;;;13.40;46.90;;;;;;5031839;28;20041;-62
2023/07/27 01:28:21;;;;;;;6.63;4.18;;;13.40;46.40;;;;;;5032934;28;20041;-62
2023/07/27 01:30:54;;;;;;;6.72;3.97;;;13.30;43.30;;;;;;5032854;28;20155;-65
2023/07/27 01:33:33;;;;;;;7.05;4.25;;;13.40;34.90;;;;;;5050486;22;20088;-96
2023/07/27 01:36:08;;;;;;;7.63;3.70;;;13.80;40.70;;;;;;5042591;22;20053;-62
2023/07/27 01:38:37;;;;;;;7.15;4.07;;;13.40;35.60;;;;;;5032363;28;20124;-61
2023/07/27 01:41:06;;;;;;;7.07;4.05;;;13.40;31.60;;;;;;5032567;28;20038;-63
2023/07/27 01:43:32;;;;;;;5.88;3.58;;;13.40;22.70;;;;;;5032466;28;20046;-62
2023/07/27 01:45:59;;;;;;;6.75;3.78;;;13.40;21.90;;;;;;5032822;28;20561;-62
2023/07/27 01:48:26;;;;;;;7.90;3.88;;;13.30;20.30;;;;;;5032774;28;20490;-64
2023/07/27 01:50:53;;;;;;;6.30;3.97;;;13.40;26.40;;;;;;5032460;28;20504;-62
2023/07/27 01:53:21;;;;;;;6.63;3.95;;;13.40;22.10;;;;;;5032498;28;20050;-62
2023/07/27 01:55:47;;;;;;;6.95;4.03;;;13.10;25.30;;;;;;5031148;28;20159;-63
2023/07/27 01:58:15;;;;;;;8.57;4.65;;;13.10;25.20;;;;;;5032641;28;20042;-62
2023/07/27 02:00:42;;;;;;;7.35;3.60;;;13.40;24.80;;;;;;5014975;28;20535;-62
2023/07/27 02:03:09;;;;;;;9.18;4.53;;;13.50;22.00;;;;;;5031147;28;20397;-62
2023/07/27 02:05:35;;;;;;;7.15;3.85;;;13.30;33.20;;;;;;5014975;28;20503;-62
2023/07/27 02:08:00;;;;;;;7.88;4.18;;;13.40;29.30;;;;;;5032297;28;20117;-62
2023/07/27 02:10:28;;;;;;;9.10;4.18;;;13.40;26.90;;;;;;5032567;28;20381;-62
2023/07/27 02:13:13;;;;;;;7.22;4.25;;;13.40;24.60;;;;;;5033161;28;20044;-62
2023/07/27 02:15:50;;;;;;;5.85;3.47;;;14.10;21.10;;;;;;5034680;28;20412;-62
2023/07/27 02:18:20;;;;;;;7.13;3.67;;;13.40;19.10;;;;;;5036153;28;20208;-63
2023/07/27 02:20:48;;;;;;;7.45;3.53;;;13.40;12.40;;;;;;5036144;28;20049;-62
2023/07/27 02:23:15;;;;;;;5.88;3.63;;;13.40;9.60;;;;;;5034782;28;20037;-62
2023/07/27 02:25:41;;;;;;;7.57;4.10;;;13.60;9.20;;;;;;5034727;28;20045;-62
2023/07/27 02:28:10;;;;;;;8.35;3.65;;;13.40;5.20;;;;;;5035653;28;20037;-62
2023/07/27 02:30:36;;;;;;;6.75;3.92;;;13.40;7.80;;;;;;5035961;28;20041;-63
2023/07/27 02:33:02;;;;;;;5.80;3.45;;;13.40;9.70;;;;;;5035803;28;20038;-64
2023/07/27 02:35:28;;;;;;;7.43;4.18;;;13.40;6.70;;;;;;5034057;28;20405;-64
2023/07/27 02:37:53;;;;;;;7.68;4.20;;;13.10;14.90;;;;;;5035766;28;20042;-65
2023/07/27 02:40:19;;;;;;;7.13;3.72;;;13.50;14.90;;;;;;5034519;28;20405;-64
2023/07/27 02:42:45;;;;;;;5.40;3.65;;;13.60;17.40;;;;;;5034294;28;20040;-64
2023/07/27 02:45:11;;;;;;;8.25;4.10;;;13.60;15.00;;;;;;5034173;28;20135;-64
2023/07/27 02:47:37;;;;;;;7.82;3.97;;;13.60;14.50;;;;;;5034039;28;20049;-64
2023/07/27 02:50:02;;;;;;;8.05;3.70;;;13.30;7.50;;;;;;5034059;28;20049;-64
2023/07/27 02:52:28;;;;;;;6.43;3.45;;;13.60;1.00;;;;;;5034333;28;20446;-64
2023/07/27 02:54:54;;;;;;;7.00;3.97;;;14.00;1.00;;;;;;5033927;28;20049;-64
2023/07/27 02:57:19;;;;;;;10.93;4.10;;;13.60;1.00;;;;;;5034227;28;20492;-64
2023/07/27 02:59:45;;;;;;;9.35;4.65;;;13.70;1.00;;;;;;5034139;28;20038;-64
2023/07/27 03:02:10;;;;;;;8.00;3.75;;;13.70;1.00;;;;;;5035345;28;20037;-64
2023/07/27 03:04:36;;;;;;;7.53;4.05;;;13.90;1.00;;;;;;5033816;28;20073;-64
2023/07/27 03:07:02;;;;;;;6.63;4.07;;;13.50;1.00;;;;;;5017486;28;20059;-65
2023/07/27 03:09:27;;;;;;;6.35;3.40;;;15.20;1.00;;;;;;5035229;28;20037;-63
2023/07/27 03:11:53;;;;;;;6.38;3.70;;;13.60;1.00;;;;;;5035119;28;20128;-63
2023/07/27 03:14:18;;;;;;;7.95;3.67;;;13.70;1.00;;;;;;5033526;28;20052;-63
2023/07/27 03:16:44;;;;;;;8.88;4.07;;;13.60;1.00;;;;;;5034787;28;20044;-64
2023/07/27 03:19:09;;;;;;;8.85;4.30;;;13.70;1.00;;;;;;5033516;28;20378;-64
2023/07/27 03:21:35;;;;;;;7.47;4.30;;;13.60;1.00;;;;;;5035030;28;20037;-63
2023/07/27 03:24:01;;;;;;;7.30;4.07;;;13.70;1.00;;;;;;5034486;28;20037;-63
2023/07/27 03:26:26;;;;;;;9.25;4.43;;;13.50;1.00;;;;;;5033700;28;20568;-64
2023/07/27 03:28:52;;;;;;;6.75;4.10;;;13.70;1.00;;;;;;5033338;28;20116;-64
2023/07/27 03:31:24;;;;;;;6.65;3.95;;;13.70;1.00;;;;;;5033199;28;20075;-64
2023/07/27 03:33:50;;;;;;;6.65;3.65;;;13.50;1.00;;;;;;5034771;28;20079;-64
2023/07/27 03:36:17;;;;;;;6.85;3.83;;;13.60;1.00;;;;;;5034385;28;20053;-64
2023/07/27 03:38:43;;;;;;;6.60;3.80;;;13.80;1.00;;;;;;5033093;28;20049;-64
2023/07/27 03:41:08;;;;;;;6.43;4.13;;;13.70;1.00;;;;;;5033373;28;20091;-64
2023/07/27 03:43:34;;;;;;;8.75;3.97;;;13.80;1.00;;;;;;5033057;28;20033;-64
2023/07/27 03:46:00;;;;;;;6.55;4.07;;;13.70;1.00;;;;;;5033182;28;20504;-64
2023/07/27 03:48:28;;;;;;;7.68;4.47;;;13.80;1.00;;;;;;5032968;28;20128;-63
2023/07/27 03:50:54;;;;;;;7.80;3.85;;;13.80;1.00;;;;;;5034135;28;20083;-64
2023/07/27 03:53:20;;;;;;;11.05;4.80;;;13.80;1.00;;;;;;5034425;28;20033;-64
2023/07/27 03:55:46;;;;;;;6.63;4.25;;;13.80;1.00;;;;;;5034257;28;20514;-64
2023/07/27 03:58:11;;;;;;;8.55;4.53;;;14.30;1.00;;;;;;5032818;28;20073;-64
2023/07/27 04:00:37;;;;;;;7.85;4.47;;;13.70;1.00;;;;;;5033887;28;20444;-63
2023/07/27 04:03:02;;;;;;;8.70;4.45;;;13.80;1.00;;;;;;5034113;28;20037;-63
2023/07/27 04:05:30;;;;;;;7.63;4.05;;;13.70;1.00;;;;;;5034129;28;20116;-64
2023/07/27 04:07:55;;;;;;;11.13;4.40;;;13.70;1.00;;;;;;5032551;28;20060;-63
2023/07/27 04:10:21;;;;;;;7.05;4.57;;;13.80;19.70;;;;;;5032572;28;20041;-63
2023/07/27 04:12:47;;;;;;;9.52;4.95;;;13.50;29.10;;;;;;5033924;28;20045;-64
2023/07/27 04:15:12;;;;;;;6.57;4.10;;;13.60;17.50;;;;;;5033165;28;20049;-64
2023/07/27 04:17:38;;;;;;;6.88;4.18;;;13.70;34.60;;;;;;5033892;28;20065;-63
2023/07/27 04:20:04;;;;;;;7.55;4.65;;;13.70;40.80;;;;;;5033860;28;20401;-64
2023/07/27 04:22:29;;;;;;;7.78;4.60;;;13.70;57.80;;;;;;5032255;28;20056;-64
2023/07/27 04:24:55;;;;;;;6.95;4.32;;;13.70;58.10;;;;;;5032096;28;20045;-64
2023/07/27 04:27:20;;;;;;;7.22;4.35;;;13.00;58.70;;;;;;5033637;28;20041;-65
2023/07/27 04:29:46;;;;;;;7.95;4.35;;;13.70;63.70;;;;;;5032490;28;20041;-64
2023/07/27 04:32:12;;;;;;;7.10;4.43;;;14.20;73.30;;;;;;5033364;28;20044;-65
2023/07/27 04:34:37;;;;;;;8.10;4.68;;;13.60;89.60;;;;;;5032882;28;20038;-64
2023/07/27 04:37:03;;;;;;;8.52;4.65;;;13.70;95.30;;;;;;5031929;28;20444;-64
2023/07/27 04:39:29;;;;;;;9.10;4.40;;;13.60;94.60;;;;;;5032070;28;20099;-65
2023/07/27 04:41:55;;;;;;;7.35;4.40;;;14.10;95.20;;;;;;5032004;28;20034;-65
2023/07/27 04:44:20;;;;;;;7.07;4.32;;;13.90;96.50;;;;;;5031916;28;20041;-65
2023/07/27 04:46:46;;;;;;;10.15;4.20;;;13.50;97.00;;;;;;5031973;28;20046;-65
2023/07/27 04:49:11;;;;;;;6.15;3.70;;;14.30;98.70;;;;;;5031926;28;20422;-65
2023/07/27 04:51:37;;;;;;;6.13;3.75;;;13.60;99.20;;;;;;5033424;28;20059;-65
2023/07/27 04:54:03;;;;;;;7.15;3.80;;;13.40;99.80;;;;;;5033258;28;20087;-65
2023/07/27 04:56:29;;;;;;;8.82;4.28;;;13.60;99.90;;;;;;5031830;28;20448;-65
2023/07/27 04:58:55;;;;;;;6.97;3.83;;;13.60;99.90;;;;;;5033025;28;20061;-65
2023/07/27 05:01:21;;;;;;;6.45;4.13;;;13.50;99.90;;;;;;5031724;28;20127;-65
2023/07/27 05:03:46;;;;;;;7.00;4.32;;;13.60;99.90;;;;;;5031617;28;20493;-65
2023/07/27 05:06:12;;;;;;;6.43;4.28;;;13.60;99.90;;;;;;5033164;28;20042;-65
2023/07/27 05:08:37;;;;;;;7.03;4.25;;;13.60;99.90;;;;;;5033174;28;20045;-66
2023/07/27 05:11:05;;;;;;;7.78;4.50;;;13.50;99.90;;;;;;5031619;28;20389;-65
2023/07/27 05:13:32;;;;;;;6.32;4.22;;;13.60;99.90;;;;;;5031654;28;20061;-66
2023/07/27 05:15:58;;;;;;;8.30;4.90;;;13.90;99.90;;;;;;5032938;28;20045;-65
2023/07/27 05:18:24;;;;;;;6.22;4.68;;;13.60;99.90;;;;;;5032657;28;20033;-65
2023/07/27 05:20:49;;;;;;;7.07;4.45;;;13.70;99.90;;;;;;5032767;28;20041;-65
2023/07/27 05:23:15;;;;;;;7.53;4.43;;;13.60;99.90;;;;;;5032680;28;20034;-66
2023/07/27 05:25:40;;;;;;;7.38;5.20;;;13.70;99.90;;;;;;5032995;28;20041;-65
2023/07/27 05:28:06;;;;;;;8.93;4.47;;;14.30;99.90;;;;;;5032665;28;20045;-64
2023/07/27 05:30:32;;;;;;;5.75;4.22;;;13.70;99.90;;;;;;5033001;28;20041;-64
2023/07/27 05:32:58;;;;;;;8.20;4.38;;;13.70;99.90;;;;;;5032915;28;20037;-64
2023/07/27 05:35:23;;;;;;;7.82;4.65;;;13.70;99.90;;;;;;5032645;28;20052;-64
2023/07/27 05:37:49;;;;;;;6.00;3.88;;;13.50;99.90;;;;;;5031736;28;20053;-64
2023/07/27 05:40:15;;;;;;;6.20;4.05;;;13.70;99.90;;;;;;5031334;28;20412;-63
2023/07/27 05:42:41;;;;;;;8.73;4.78;;;13.80;99.90;;;;;;5032830;28;20454;-63
2023/07/27 05:45:08;;;;;;;6.45;3.88;;;13.80;99.90;;;;;;5032827;28;20038;-63
2023/07/27 05:47:33;;;;;;;6.90;3.83;;;13.80;99.90;;;;;;5036145;28;20041;-63
2023/07/27 05:49:59;;;;;;;6.85;4.53;;;13.80;99.90;;;;;;5035185;28;20045;-63
2023/07/27 05:52:25;;;;;;;7.10;3.97;;;14.30;99.90;;;;;;5036734;28;20053;-64
2023/07/27 05:54:51;;;;;;;7.30;4.55;;;13.50;99.90;;;;;;5036557;28;20042;-64
2023/07/27 05:57:16;;;;;;;7.03;4.50;;;13.80;99.90;;;;;;5035133;28;20393;-66
2023/07/27 05:59:42;;;;;;;5.55;3.92;;;14.30;99.90;;;;;;5036563;28;20038;-65
2023/07/27 06:02:08;;;;;;;7.85;4.45;;;13.90;99.90;;;;;;5034942;28;20069;-64
2023/07/27 06:04:33;;;;;;;5.38;3.30;;;15.00;99.90;;;;;;5034938;28;20048;-64
2023/07/27 06:06:59;;;;;;;5.88;3.83;;;14.30;99.90;;;;;;5018362;28;20057;-63
2023/07/27 06:09:25;;;;;;;6.50;3.92;;;14.20;99.90;;;;;;5018639;28;20056;-63
2023/07/27 06:11:51;;;;;;;8.13;4.10;;;14.30;99.90;;;;;;5034770;28;20056;-63
2023/07/27 06:14:17;;;;;;;5.97;3.78;;;14.20;99.90;;;;;;5035954;28;20033;-63
2023/07/27 06:16:43;;;;;;;6.57;3.60;;;14.00;99.90;;;;;;5035927;28;20048;-63
2023/07/27 06:19:09;;;;;;;7.72;3.95;;;14.50;99.90;;;;;;5034882;28;20045;-63
2023/07/27 06:21:34;;;;;;;7.28;4.03;;;14.40;99.90;;;;;;5036144;28;20037;-63
2023/07/27 06:24:00;;;;;;;6.65;3.60;;;14.10;99.90;;;;;;5034504;28;20091;-63
2023/07/27 06:26:26;;;;;;;6.07;3.95;;;14.40;99.90;;;;;;5036010;28;20037;-64
2023/07/27 06:28:51;;;;;;;5.90;3.75;;;14.40;99.90;;;;;;5034537;28;20041;-63
2023/07/27 06:31:17;;;;;;;6.30;4.13;;;14.40;99.90;;;;;;5036070;28;20080;-63
2023/07/27 06:33:43;;;;;;;5.93;3.55;;;15.00;99.90;;;;;;5035961;28;20072;-63
2023/07/27 06:36:11;;;;;;;5.75;3.65;;;14.60;99.90;;;;;;5035482;28;20129;-64
2023/07/27 06:38:40;;;;;;;10.27;4.57;;;14.60;99.90;;;;;;5017887;28;20045;-63
2023/07/27 06:41:06;;;;;;;7.32;4.38;;;14.70;99.90;;;;;;5017814;28;20052;-63
2023/07/27 06:43:32;;;;;;;7.15;4.60;;;15.00;99.90;;;;;;5034544;28;20493;-64
2023/07/27 06:45:58;;;;;;;8.65;4.35;;;14.70;99.90;;;;;;5035385;28;20044;-63
2023/07/27 06:48:23;;;;;;;5.85;3.85;;;14.70;99.90;;;;;;5034420;28;20052;-63
2023/07/27 06:50:49;;;;;;;7.28;4.78;;;14.70;99.90;;;;;;5034050;28;20080;-63
2023/07/27 06:53:15;;;;;;;5.60;4.40;;;14.80;99.90;;;;;;5034283;28;20516;-63
2023/07/27 06:55:41;;;;;;;10.07;4.80;;;14.90;99.90;;;;;;5035427;28;20037;-63
2023/07/27 06:58:07;;;;;;;6.88;4.30;;;14.60;99.90;;;;;;5034320;28;20044;-62
2023/07/27 07:00:32;;;;;;;6.20;4.20;;;14.80;99.90;;;;;;5035179;28;20120;-62
2023/07/27 07:02:58;;;;;;;7.88;4.53;;;14.90;99.90;;;;;;5033786;28;20033;-63
2023/07/27 07:05:24;;;;;;;6.47;4.18;;;15.00;99.90;;;;;;5033718;28;20080;-63
2023/07/27 07:07:50;;;;;;;9.73;4.43;;;15.80;99.90;;;;;;5033745;28;20080;-63
2023/07/27 07:10:16;;;;;;;5.50;3.70;;;15.10;99.90;;;;;;5033751;28;20545;-64
2023/07/27 07:12:41;;;;;;;6.30;4.45;;;15.00;99.90;;;;;;5033543;28;20084;-64
2023/07/27 07:15:08;;;;;;;6.65;4.30;;;;;;;;;;5033839;28;20397;-63
2023/07/27 07:17:34;;;;;;;7.15;4.70;;;;;;;;;;5033621;28;20037;-64
2023/07/27 07:20:00;;;;;;;5.50;3.67;;;;;;;;;;5035027;28;20382;-63
2023/07/27 07:22:26;;;;;;;6.25;4.07;;;;;;;;;;5035062;28;20048;-64
2023/07/27 07:24:52;;;;;;;6.85;3.33;;;;;;;;;;5034873;28;20041;-65
2023/07/27 07:27:18;;;;;;;5.88;3.60;;;;;;;;;;5033501;28;20132;-64
2023/07/27 07:29:44;;;;;;;5.70;3.75;;;;;;;;;;5033627;28;20450;-64
2023/07/27 07:32:11;;;;;;;5.72;3.40;;;;;;;;;;5016793;28;20060;-64
2023/07/27 07:34:37;;;;;;;6.43;3.72;;;;;;;;;;5034697;28;20052;-64
2023/07/27 07:37:03;;;;;;;4.22;2.78;;;;;;;;;;5034310;28;20057;-64
2023/07/27 07:39:30;;;;;;;4.22;3.08;;;;;;;;;;5034418;28;20436;-64
2023/07/27 07:41:56;;;;;;;4.10;2.88;;;;;;;;;;5034609;28;20116;-64
2023/07/27 07:44:22;;;;;;;5.35;3.25;;;;;;;;;;5032981;28;20057;-64
2023/07/27 07:46:55;;;;;;;6.53;3.53;;;;;;;;;;5032991;28;20068;-65
2023/07/27 07:49:24;;;;;;;5.22;3.03;;;;;;;;;;5034088;28;20042;-64
2023/07/27 07:51:50;;;;;;;6.07;3.00;;;;;;;;;;5034191;28;20049;-63
2023/07/27 07:54:16;;;;;;;5.68;3.03;;;;;;;;;;5034293;28;20052;-64
2023/07/27 07:56:42;;;;;;;3.53;2.40;;;;;;;;;;5016313;28;20068;-63
2023/07/27 07:59:08;;;;;;;4.20;2.75;;;;;;;;;;5034362;28;20477;-63
2023/07/27 08:01:34;;;;;;;5.47;2.72;;;;;;;;;;5034313;28;20136;-63
2023/07/27 08:04:00;;;;;;;3.83;2.92;;;;;;;;;;5032832;28;20405;-64
2023/07/27 08:06:26;;;;;;;5.22;2.58;;;;;;;;;;5016199;28;20041;-64
2023/07/27 08:08:52;;;;;;;3.55;2.53;;;;;;;;;;5032767;28;20045;-64
2023/07/27 08:11:18;;;;;;;4.00;2.70;;;;;;;;;;5033875;28;20124;-64
2023/07/27 08:13:44;;;;;;;4.30;2.60;;;;;;;;;;5034036;28;20073;-63
2023/07/27 08:16:12;;;;;;;3.70;2.45;;;;;;;;;;5033881;28;20049;-63
2023/07/27 08:18:38;;;;;;;3.53;2.25;;;;;;;;;;5033881;28;20045;-63
2023/07/27 08:21:05;;;;;;;3.75;2.72;;;;;;;;;;5033881;28;20136;-63
2023/07/27 08:23:31;;;;;;;3.95;2.40;;;;;;;;;;5033822;28;20043;-63
2023/07/27 08:25:58;;;;;;;3.70;2.53;;;;;;;;;;5032572;28;20045;-63
2023/07/27 08:28:24;;;;;;;4.35;2.50;;;;;;;;;;5032193;28;20111;-63
2023/07/27 08:30:50;;;;;;;3.63;2.55;;;;;;;;;;5033750;28;20056;-63
2023/07/27 08:33:16;;;;;;;3.72;2.28;;;;;;;;;;5032239;28;20437;-63
2023/07/27 08:35:43;;;;;;;3.20;2.42;;;;;;;;;;5032559;28;20057;-63
2023/07/27 08:38:09;;;;;;;5.22;2.55;;;;;;;;;;5032063;28;20126;-63
2023/07/27 08:40:35;;;;;;;3.53;2.35;;;;;;;;;;5032088;28;20044;-62
2023/07/27 08:43:05;;;;;;;5.75;2.92;;;;;;;;;;5033218;28;20077;-64
2023/07/27 08:45:31;;;;;;;3.70;2.92;;;;;;;;;;5032012;28;20045;-67
2023/07/27 08:47:57;;;;;;;4.10;2.85;;;;;;;;;;5032208;28;20052;-63
2023/07/27 08:50:23;;;;;;;3.92;2.92;;;;;;;;;;5033107;28;20405;-63
2023/07/27 08:52:49;;;;;;;4.00;2.58;;;;;;;;;;5033230;28;20064;-63
2023/07/27 08:55:15;;;;;;;4.60;2.75;;;;;;;;;;5033104;28;20474;-63
2023/07/27 08:57:42;;;;;;;4.00;2.75;;;;;;;;;;5033170;28;20452;-63
2023/07/27 09:00:11;;;;;;;3.33;2.58;;;;;;;;;;5031651;28;20389;-62
2023/07/27 09:02:38;;;;;;;3.55;2.95;;;;;;;;;;5033149;28;20433;-61
2023/07/27 09:05:05;;;;;;;2.88;2.58;;;;;;;;;;5033067;28;20456;-61
2023/07/27 09:07:31;;;;;;;4.15;2.70;;;;;;;;;;5032736;28;20045;-62
2023/07/27 09:09:57;;;;;;;3.70;2.65;;;;;;;;;;5033011;28;20085;-62
2023/07/27 09:12:26;;;;;;;3.50;2.80;;;;;;;;;;5032966;28;20065;-62
2023/07/27 09:14:52;;;;;;;4.07;2.45;;;;;;;;;;5032904;28;20456;-62
2023/07/27 09:17:19;;;;;;;3.53;2.65;;;;;;;;;;5032971;28;20401;-62
2023/07/27 09:19:45;;;;;;;3.03;2.33;;;;;;;;;;5031379;28;20375;-63
2023/07/27 09:22:14;;;;;;;3.80;2.55;;;;;;;;;;5037860;28;20037;-62
2023/07/27 09:24:41;;;;;;;2.63;1.98;;;;;;;;;;5039506;28;20045;-62
2023/07/27 09:27:11;;;;;;;2.85;2.10;;;;;;;;;;5039463;28;20175;-63
2023/07/27 09:29:37;;;;;;;2.80;2.05;;;;;;;;;;5038332;28;20098;-63
2023/07/27 09:32:05;;;;;;;2.88;2.22;;;;;;;;;;5039534;28;20374;-63
2023/07/27 09:34:32;;;;;;;2.08;1.83;;;;;;;;;;5037709;28;20053;-62
2023/07/27 09:37:08;;;;;;;2.78;1.90;;;;;;;;;;5037742;28;20053;-63
2023/07/27 09:39:42;;;;;;;1.75;1.50;;;16.40;99.90;;;;;;5039145;28;20053;-62
2023/07/27 09:42:10;;;;;;;2.45;1.85;;;16.40;99.90;;;;;;5037835;28;20045;-62
2023/07/27 09:44:49;;;;;;;2.63;1.70;;;16.30;99.90;;;;;;5039330;28;20489;-62
2023/07/27 09:47:20;;;;;;;2.03;1.30;;;16.40;99.90;;;;;;5039287;28;20042;-62
2023/07/27 09:49:49;;;;;;;2.40;1.70;;;16.90;99.90;;;;;;5039257;28;20060;-63
2023/07/27 09:52:17;;;;;;;2.22;1.73;;;17.10;99.90;;;;;;5039183;28;20116;-62
2023/07/27 09:54:46;;;;;;;2.17;1.48;;;16.50;99.90;;;;;;5037821;28;20046;-62
2023/07/27 09:57:12;;;;;;;2.00;1.60;;;16.50;99.90;;;;;;5037974;28;20037;-62
2023/07/27 09:59:38;;;;;;;1.67;1.40;;;16.70;99.90;;;;;;5037927;28;20124;-62
2023/07/27 10:02:03;;;;;;;2.55;1.77;;;16.20;99.90;;;;;;5037563;28;20046;-62
2023/07/27 10:04:29;;;;;;;3.13;1.42;;;16.60;99.90;;;;;;5039161;28;20457;-62
2023/07/27 10:06:55;;;;;;;3.03;2.00;;;16.40;99.90;;;;;;5039098;28;20044;-63
2023/07/27 10:09:22;;;;;;;3.20;1.38;;;16.50;99.90;;;;;;5037810;28;20073;-63
2023/07/27 10:11:55;;;;;;;2.40;1.80;;;16.80;99.90;;;;;;5039030;28;20049;-63
2023/07/27 10:14:24;;;;;;;2.70;2.00;;;16.70;99.90;;;;;;5038933;28;20052;-63
2023/07/27 10:17:01;;;;;;;3.13;2.03;;;16.50;99.90;;;;;;5039088;28;20120;-63
2023/07/27 10:19:43;;;;;;;2.30;2.00;;;16.70;99.90;;;;;;5037816;28;20556;-62
2023/07/27 10:22:13;;;;;;;2.28;1.98;;;16.50;99.90;;;;;;5037537;28;20045;-63
2023/07/27 10:24:56;;;;;;;3.30;2.10;;;16.20;99.90;;;;;;5039122;28;20116;-62
2023/07/27 10:27:23;;;;;;;2.13;1.85;;;16.30;99.90;;;;;;5039082;28;20109;-62
2023/07/27 10:29:53;;;;;;;3.40;2.17;;;16.30;99.90;;;;;;5038924;28;20041;-63
2023/07/27 10:32:19;;;;;;;2.90;2.33;;;16.70;99.90;;;;;;5037183;28;20038;-62
2023/07/27 10:34:52;;;;;;;3.08;2.33;;;16.30;99.90;;;;;;5035311;28;20124;-62
2023/07/27 10:37:18;;;;;;;3.30;2.55;;;16.30;99.90;;;;;;5034206;28;20068;-62
2023/07/27 10:39:50;;;;;;;3.28;2.30;;;16.40;99.90;;;;;;5035513;28;20397;-62
2023/07/27 10:42:20;;;;;;;2.65;2.10;;;16.30;99.90;;;;;;5035874;28;20033;-62
2023/07/27 10:44:50;;;;;;;4.35;2.47;;;16.40;99.90;;;;;;5035732;28;20088;-62
2023/07/27 10:47:33;;;;;;;3.00;2.22;;;16.40;99.90;;;;;;5035777;28;20033;-62
2023/07/27 10:49:59;;;;;;;2.97;2.15;;;16.50;99.90;;;;;;5035363;28;20091;-62
2023/07/27 10:52:27;;;;;;;2.53;1.92;;;17.00;99.90;;;;;;5034074;28;20082;-62
2023/07/27 10:54:56;;;;;;;2.45;2.08;;;16.50;99.90;;;;;;5035545;28;20397;-61
2023/07/27 10:57:23;;;;;;;3.47;2.25;;;17.20;99.90;;;;;;5035507;28;20397;-62
2023/07/27 10:59:50;;;;;;;3.28;2.40;;;16.60;99.90;;;;;;5035504;28;20468;-61
2023/07/27 11:02:31;;;;;;;3.08;2.25;;;16.60;99.90;;;;;;5033977;28;20114;-61
2023/07/27 11:05:05;;;;;;;2.80;2.10;;;16.70;99.90;;;;;;5035384;28;20091;-62
2023/07/27 11:07:33;;;;;;;2.65;1.77;;;16.70;99.90;;;;;;5033803;28;20049;-62
2023/07/27 11:10:03;;;;;;;2.10;1.90;;;16.80;99.90;;;;;;5035050;28;20056;-62
2023/07/27 11:12:29;;;;;;;2.60;2.22;;;17.30;99.90;;;;;;5034070;28;20053;-62
2023/07/27 11:14:55;;;;;;;2.70;2.25;;;16.80;99.90;;;;;;5034759;28;20041;-62
2023/07/27 11:17:22;;;;;;;2.80;2.20;;;17.10;99.90;;;;;;5033659;28;20099;-62
2023/07/27 11:19:49;;;;;;;3.20;2.00;;;16.90;99.90;;;;;;5035123;28;20094;-62
2023/07/27 11:22:16;;;;;;;2.60;2.05;;;16.90;99.90;;;;;;5034820;28;20041;-62
2023/07/27 11:24:41;;;;;;;2.40;1.95;;;16.90;99.90;;;;;;5034818;28;20045;-62
2023/07/27 11:27:09;;;;;;;3.15;2.25;;;16.90;99.90;;;;;;5034943;28;20040;-62
2023/07/27 11:29:43;;;;;;;3.08;2.30;;;16.70;99.90;;;;;;5034745;28;20037;-63
2023/07/27 11:32:08;;;;;;;2.80;1.92;;;17.00;99.90;;;;;;5034649;28;20044;-62
2023/07/27 11:34:35;;;;;;;2.47;2.08;;;17.20;99.90;;;;;;5034753;28;20045;-62
2023/07/27 11:37:01;;;;;;;2.85;2.08;;;17.10;99.90;;;;;;5033078;28;20057;-62
2023/07/27 11:39:27;;;;;;;3.80;2.95;;;17.20;99.90;;;;;;5033216;28;20046;-62
2023/07/27 11:41:53;;;;;;;2.20;1.80;;;17.20;99.90;;;;;;5034579;28;20531;-62
2023/07/27 11:44:21;;;;;;;3.38;2.17;;;17.40;99.90;;;;;;5032825;28;20052;-62
2023/07/27 11:46:50;;;;;;;2.53;2.08;;;17.50;99.90;;;;;;5033103;28;20501;-62
2023/07/27 11:49:17;;;;;;;3.30;2.40;;;17.50;99.90;;;;;;5034572;28;20042;-62
2023/07/27 11:51:45;;;;;;;2.97;2.28;;;17.60;99.90;;;;;;5016519;28;20421;-62
2023/07/27 11:54:12;;;;;;;3.28;1.98;;;;;;;;;;5034482;28;20037;-62
2023/07/27 11:56:38;;;;;;;2.45;1.90;;;;;;;;;;5034372;28;20056;-62
2023/07/27 11:59:07;;;;;;;2.45;1.75;;;17.70;99.90;;;;;;5034116;28;20052;-62
2023/07/27 12:01:34;;;;;;;2.92;1.85;;;17.70;99.90;;;;;;5016367;28;20052;-62
2023/07/27 12:04:01;;;;;;;2.33;1.70;;;17.80;99.90;;;;;;5034263;28;20041;-62
2023/07/27 12:06:28;;;;;;;2.53;1.83;;;17.80;99.90;;;;;;5034196;28;20068;-62
2023/07/27 12:08:55;;;;;;;2.85;1.80;;;17.80;99.90;;;;;;5034140;28;20048;-62
2023/07/27 12:11:27;;;;;;;2.00;1.48;;;17.90;99.90;;;;;;5032907;28;20038;-62
2023/07/27 12:13:53;;;;;;;2.10;1.35;;;18.70;99.90;;;;;;5034096;28;20404;-62
2023/07/27 12:16:19;;;;;;;1.92;1.30;;;17.80;99.90;;;;;;5033963;28;20053;-63
2023/07/27 12:18:45;;;;;;;3.53;1.38;;;17.90;99.90;;;;;;5033940;28;20037;-62
2023/07/27 12:21:12;;;;;;;1.50;1.10;;;18.00;99.90;;;;;;5015928;28;20073;-63
2023/07/27 12:23:38;;;;;;;1.60;1.25;;;18.00;99.90;;;;;;5033637;28;20034;-62
2023/07/27 12:26:04;;;;;;;1.75;1.30;;;18.20;99.90;;;;;;5033864;28;20052;-62
2023/07/27 12:28:31;;;;;;;1.77;1.20;;;18.00;99.90;;;;;;5033775;28;20041;-62
2023/07/27 12:30:57;;;;;;;0.95;0.80;;;18.00;99.90;;;;;;5033799;28;20045;-62
2023/07/27 12:33:25;;;;;;;1.13;1.02;;;18.10;99.90;;;;;;5033747;28;20076;-62
2023/07/27 12:35:53;;;;;;;2.38;1.15;;;18.10;99.90;;;;;;5033394;28;20061;-62
2023/07/27 12:38:19;;;;;;;1.38;1.00;;;18.20;99.90;;;;;;5033383;28;20387;-62
2023/07/27 12:40:46;;;;;;;1.58;1.08;;;18.20;99.90;;;;;;5033690;28;20098;-63
2023/07/27 12:43:12;;;;;;;2.95;1.08;;;18.30;99.90;;;;;;5033198;28;20120;-62
2023/07/27 12:45:39;;;;;;;1.40;1.00;;;18.30;99.90;;;;;;5033293;28;20041;-62
2023/07/27 12:48:05;;;;;;;1.77;1.30;;;18.30;99.90;;;;;;5032318;28;20080;-62
2023/07/27 12:50:31;;;;;;;2.03;1.13;;;18.30;99.90;;;;;;5033440;28;20076;-62
2023/07/27 12:52:56;;;;;;;1.65;1.13;;;18.70;99.90;;;;;;5033435;28;20434;-62
2023/07/27 12:55:22;;;;;;;2.03;1.08;;;18.20;99.90;;;;;;5032791;28;20469;-63
2023/07/27 12:57:48;;;;;;;1.65;1.00;;;18.20;99.90;;;;;;5033016;28;20075;-62
2023/07/27 13:00:15;;;;;;;1.33;1.05;;;18.20;99.90;;;;;;5033283;28;20073;-62
2023/07/27 13:02:42;;;;;;;1.40;1.00;;;18.20;99.90;;;;;;5033288;28;20064;-62
2023/07/27 13:05:12;;;;;;;1.30;0.85;;;18.20;99.90;;;;;;5033294;28;20045;-63
2023/07/27 13:07:39;;;;;;;1.08;0.90;;;18.20;99.90;;;;;;5031808;28;20045;-62